createdAt,value
2017-09-29T00:01:17.073Z,77.10
2017-09-29T00:03:45.963Z,77.10
2017-09-29T00:06:15.978Z,77.10
2017-09-29T00:08:45.741Z,77.00
2017-09-29T00:11:14.720Z,77.00
2017-09-29T00:13:43.534Z,77.10
2017-09-29T00:16:13.125Z,77.40
2017-09-29T00:18:42.090Z,77.40
2017-09-29T00:21:10.903Z,77.60
2017-09-29T00:23:40.472Z,77.70
2017-09-29T00:26:09.569Z,77.70
2017-09-29T00:28:38.563Z,77.80
2017-09-29T00:31:07.862Z,77.90
2017-09-29T00:33:37.372Z,78.10
2017-09-29T00:36:06.263Z,78.10
2017-09-29T00:38:35.364Z,78.20
2017-09-29T00:41:05.227Z,78.20
2017-09-29T00:43:34.514Z,78.20
2017-09-29T00:46:04.316Z,78.30
2017-09-29T00:48:33.094Z,78.20
2017-09-29T00:51:03.803Z,78.20
2017-09-29T00:53:33.511Z,78.20
2017-09-29T00:56:03.617Z,78.00
2017-09-29T00:58:32.725Z,78.00
2017-09-29T01:01:01.636Z,78.00
2017-09-29T01:03:31.943Z,77.90
2017-09-29T01:06:01.073Z,77.80
2017-09-29T01:08:30.750Z,78.10
2017-09-29T01:10:59.638Z,78.10
2017-09-29T01:13:28.529Z,78.10
2017-09-29T01:15:57.674Z,78.20
2017-09-29T01:18:26.559Z,78.30
2017-09-29T01:20:55.512Z,78.20
2017-09-29T01:23:24.400Z,78.10
2017-09-29T01:25:53.403Z,78.00
2017-09-29T01:28:22.386Z,78.10
2017-09-29T01:30:52.097Z,77.90
2017-09-29T01:33:21.193Z,77.90
2017-09-29T01:35:50.084Z,77.90
2017-09-29T01:38:18.921Z,77.90
2017-09-29T01:40:48.896Z,77.80
2017-09-29T01:43:17.785Z,77.70
2017-09-29T01:45:47.019Z,77.30
2017-09-29T01:48:16.793Z,77.10
2017-09-29T01:50:45.995Z,77.10
2017-09-29T01:53:14.888Z,77.10
2017-09-29T01:55:44.597Z,76.80
2017-09-29T01:58:14.309Z,76.80
2017-09-29T02:00:43.297Z,76.80
2017-09-29T02:03:13.421Z,76.90
2017-09-29T02:05:42.515Z,76.90
2017-09-29T02:08:11.643Z,76.90
2017-09-29T02:10:40.503Z,76.80
2017-09-29T02:13:09.592Z,76.80
2017-09-29T02:15:39.769Z,76.90
2017-09-29T02:18:09.632Z,76.80
2017-09-29T02:20:38.934Z,76.80
2017-09-29T02:23:09.640Z,76.90
2017-09-29T02:25:38.480Z,76.90
2017-09-29T02:28:07.579Z,77.10
2017-09-29T02:30:36.854Z,77.30
2017-09-29T02:33:06.562Z,77.40
2017-09-29T02:35:36.577Z,77.60
2017-09-29T02:38:05.620Z,77.40
2017-09-29T02:40:35.393Z,77.50
2017-09-29T02:43:05.093Z,77.50
2017-09-29T02:45:33.900Z,77.50
2017-09-29T02:48:03.799Z,77.80
2017-09-29T02:50:32.866Z,77.70
2017-09-29T02:53:01.789Z,77.80
2017-09-29T02:55:30.691Z,78.10
2017-09-29T02:58:02.279Z,78.30
2017-09-29T03:00:32.369Z,78.30
2017-09-29T03:03:03.743Z,78.10
2017-09-29T03:05:34.650Z,77.90
2017-09-29T03:08:03.681Z,77.60
2017-09-29T03:10:32.627Z,77.50
2017-09-29T03:13:01.515Z,77.70
2017-09-29T03:15:30.403Z,77.90
2017-09-29T03:17:59.094Z,78.20
2017-09-29T03:20:28.106Z,77.90
2017-09-29T03:22:56.871Z,78.10
2017-09-29T03:25:25.561Z,77.80
2017-09-29T03:27:54.458Z,78.10
2017-09-29T03:30:23.663Z,78.10
2017-09-29T03:32:52.437Z,78.10
2017-09-29T03:35:21.433Z,77.90
2017-09-29T03:37:50.342Z,78.10
2017-09-29T03:40:19.215Z,78.10
2017-09-29T03:42:50.266Z,78.00
2017-09-29T03:45:19.144Z,77.90
2017-09-29T03:47:48.037Z,78.00
2017-09-29T03:50:18.189Z,78.10
2017-09-29T03:52:49.693Z,77.60
2017-09-29T03:55:20.400Z,77.60
2017-09-29T03:57:51.010Z,77.60
2017-09-29T04:00:19.969Z,77.80
2017-09-29T04:02:49.678Z,77.90
2017-09-29T04:05:18.543Z,77.70
2017-09-29T04:07:47.650Z,77.80
2017-09-29T04:10:16.354Z,77.80
2017-09-29T04:12:45.399Z,77.50
2017-09-29T04:15:15.366Z,78.00
2017-09-29T04:17:45.430Z,77.90
2017-09-29T04:20:14.165Z,77.90
2017-09-29T04:22:44.081Z,77.90
2017-09-29T04:25:13.795Z,77.90
2017-09-29T04:27:42.621Z,78.00
2017-09-29T04:30:11.375Z,78.30
2017-09-29T04:32:40.311Z,78.20
2017-09-29T04:35:09.209Z,78.30
2017-09-29T04:37:37.974Z,78.20
2017-09-29T04:40:07.650Z,78.30
2017-09-29T04:42:36.496Z,78.10
2017-09-29T04:45:05.171Z,78.10
2017-09-29T04:47:33.849Z,78.00
2017-09-29T04:50:02.808Z,78.10
2017-09-29T04:52:32.315Z,77.90
2017-09-29T04:55:01.149Z,77.70
2017-09-29T04:57:30.605Z,78.00
2017-09-29T04:59:59.843Z,78.00
2017-09-29T05:02:28.601Z,77.90
2017-09-29T05:04:57.483Z,77.90
2017-09-29T05:07:26.175Z,78.00
2017-09-29T05:09:55.885Z,78.00
2017-09-29T05:12:24.563Z,77.50
2017-09-29T05:14:53.660Z,77.40
2017-09-29T05:17:22.348Z,77.20
2017-09-29T05:19:51.037Z,77.50
2017-09-29T05:22:20.133Z,77.30
2017-09-29T05:24:49.020Z,77.30
2017-09-29T05:27:17.940Z,77.40
2017-09-29T05:29:48.038Z,77.10
2017-09-29T05:32:17.127Z,77.00
2017-09-29T05:34:46.575Z,76.80
2017-09-29T05:37:16.194Z,76.90
2017-09-29T05:39:46.094Z,76.70
2017-09-29T05:42:14.947Z,76.70
2017-09-29T05:44:44.248Z,77.70
2017-09-29T05:47:13.137Z,76.80
2017-09-29T05:49:41.825Z,76.80
2017-09-29T05:52:10.712Z,76.80
2017-09-29T05:54:39.399Z,76.90
2017-09-29T05:57:08.291Z,76.90
2017-09-29T05:59:37.185Z,76.80
2017-09-29T06:02:06.801Z,76.80
2017-09-29T06:04:35.719Z,77.40
2017-09-29T06:07:04.682Z,77.10
2017-09-29T06:09:34.383Z,76.60
2017-09-29T06:12:03.489Z,76.50
2017-09-29T06:14:33.194Z,76.60
2017-09-29T06:17:02.408Z,76.60
2017-09-29T06:19:31.178Z,76.50
2017-09-29T06:22:00.072Z,76.40
2017-09-29T06:24:28.959Z,76.30
2017-09-29T06:26:57.661Z,76.20
2017-09-29T06:29:26.536Z,76.10
2017-09-29T06:31:55.562Z,75.90
2017-09-29T06:34:25.855Z,75.90
2017-09-29T06:36:54.972Z,75.80
2017-09-29T06:39:24.590Z,75.60
2017-09-29T06:41:53.853Z,75.70
2017-09-29T06:44:23.333Z,75.70
2017-09-29T06:46:52.162Z,76.10
2017-09-29T06:49:21.172Z,75.40
2017-09-29T06:51:51.074Z,74.80
2017-09-29T06:54:20.575Z,74.80
2017-09-29T06:56:49.672Z,74.70
2017-09-29T06:59:18.573Z,75.00
2017-09-29T07:01:48.435Z,74.10
2017-09-29T07:04:17.824Z,72.30
2017-09-29T07:06:47.988Z,69.00
2017-09-29T07:09:17.156Z,66.10
2017-09-29T07:11:45.964Z,63.00
2017-09-29T07:14:15.180Z,60.20
2017-09-29T07:16:44.696Z,58.00
2017-09-29T07:19:14.259Z,57.00
2017-09-29T07:21:43.844Z,56.30
2017-09-29T07:24:12.995Z,56.60
2017-09-29T07:26:44.945Z,56.80
2017-09-29T07:29:15.594Z,56.50
2017-09-29T07:31:46.415Z,54.50
2017-09-29T07:34:18.534Z,52.40
2017-09-29T07:36:47.678Z,54.00
2017-09-29T07:39:16.787Z,54.80
2017-09-29T07:41:45.926Z,54.70
2017-09-29T07:44:17.219Z,55.20
2017-09-29T07:46:52.048Z,52.20
2017-09-29T07:49:31.355Z,52.40
2017-09-29T07:52:01.322Z,54.10
2017-09-29T07:54:31.025Z,55.30
2017-09-29T07:57:00.170Z,55.30
2017-09-29T07:59:28.907Z,54.70
2017-09-29T08:01:58.236Z,54.80
2017-09-29T08:04:28.167Z,54.10
2017-09-29T08:06:57.312Z,54.00
2017-09-29T08:09:26.344Z,55.10
2017-09-29T08:11:55.258Z,57.40
2017-09-29T08:14:24.422Z,58.30
2017-09-29T08:16:54.710Z,57.90
2017-09-29T08:19:23.795Z,57.90
2017-09-29T08:21:52.574Z,59.10
2017-09-29T08:24:21.710Z,59.10
2017-09-29T08:26:50.601Z,59.70
2017-09-29T08:29:19.297Z,60.00
2017-09-29T08:31:48.323Z,60.60
2017-09-29T08:34:17.206Z,59.60
2017-09-29T08:36:46.373Z,59.50
2017-09-29T08:39:15.259Z,59.20
2017-09-29T08:41:44.361Z,58.90
2017-09-29T08:44:13.246Z,59.30
2017-09-29T08:46:41.931Z,59.70
2017-09-29T08:49:10.825Z,59.70
2017-09-29T08:51:39.698Z,59.80
2017-09-29T08:54:09.021Z,59.80
2017-09-29T08:56:37.907Z,60.60
2017-09-29T08:59:07.206Z,61.20
2017-09-29T09:01:36.106Z,60.70
2017-09-29T09:04:05.235Z,59.80
2017-09-29T09:06:34.236Z,59.00
2017-09-29T09:09:04.376Z,58.50
2017-09-29T09:11:33.775Z,57.90
2017-09-29T09:14:02.938Z,58.20
2017-09-29T09:16:32.211Z,58.90
2017-09-29T09:19:02.539Z,59.80
2017-09-29T09:21:32.880Z,59.50
2017-09-29T09:24:01.716Z,59.60
2017-09-29T09:26:31.558Z,60.40
2017-09-29T09:29:00.640Z,60.40
2017-09-29T09:31:29.552Z,60.50
2017-09-29T09:33:58.439Z,61.40
2017-09-29T09:36:27.336Z,61.20
2017-09-29T09:38:56.009Z,61.30
2017-09-29T09:41:24.906Z,60.80
2017-09-29T09:43:54.614Z,60.20
2017-09-29T09:46:23.527Z,60.20
2017-09-29T09:48:53.426Z,60.50
2017-09-29T09:51:22.223Z,61.70
2017-09-29T09:53:51.491Z,61.40
2017-09-29T09:56:20.553Z,61.20
2017-09-29T09:58:50.953Z,60.40
2017-09-29T10:01:19.641Z,60.40
2017-09-29T10:03:48.315Z,60.60
2017-09-29T10:06:17.008Z,60.20
2017-09-29T10:08:46.547Z,60.70
2017-09-29T10:11:15.391Z,60.80
2017-09-29T10:13:44.078Z,61.40
2017-09-29T10:16:12.966Z,61.70
2017-09-29T10:18:41.669Z,60.80
2017-09-29T10:21:10.620Z,59.60
2017-09-29T10:23:39.754Z,58.60
2017-09-29T10:26:08.642Z,58.00
2017-09-29T10:28:37.936Z,57.20
2017-09-29T10:31:06.912Z,57.60
2017-09-29T10:33:36.328Z,57.70
2017-09-29T10:36:05.123Z,57.40
2017-09-29T10:38:34.227Z,57.40
2017-09-29T10:41:03.209Z,57.40
2017-09-29T10:43:32.304Z,56.90
2017-09-29T10:46:00.991Z,56.90
2017-09-29T10:48:29.881Z,57.10
2017-09-29T10:51:00.194Z,57.80
2017-09-29T10:53:30.580Z,58.90
2017-09-29T10:55:59.421Z,60.10
2017-09-29T10:58:29.542Z,61.90
2017-09-29T11:00:58.617Z,62.60
2017-09-29T11:03:27.326Z,63.40
2017-09-29T11:05:57.094Z,63.70
2017-09-29T11:08:26.952Z,63.30
2017-09-29T11:10:56.930Z,63.20
2017-09-29T11:13:25.934Z,63.20
2017-09-29T11:15:55.587Z,63.20
2017-09-29T11:18:24.623Z,63.20
2017-09-29T11:20:53.864Z,63.10
2017-09-29T11:23:23.969Z,62.30
2017-09-29T11:25:53.099Z,60.90
2017-09-29T11:28:21.934Z,59.80
2017-09-29T11:30:50.847Z,60.20
2017-09-29T11:33:19.500Z,60.30
2017-09-29T11:35:50.176Z,60.60
2017-09-29T11:38:19.417Z,60.50
2017-09-29T11:40:48.850Z,60.30
2017-09-29T11:43:20.655Z,60.40
2017-09-29T11:45:49.943Z,60.40
2017-09-29T11:48:18.932Z,60.40
2017-09-29T11:50:47.843Z,60.70
2017-09-29T11:53:17.534Z,60.60
2017-09-29T11:55:47.042Z,60.60
2017-09-29T11:58:16.842Z,61.60
2017-09-29T12:00:45.800Z,61.20
2017-09-29T12:03:15.258Z,60.00
2017-09-29T12:05:44.596Z,60.00
2017-09-29T12:08:13.344Z,58.50
2017-09-29T12:10:42.501Z,57.90
2017-09-29T12:13:11.549Z,54.10
2017-09-29T12:15:41.451Z,53.80
2017-09-29T12:18:10.540Z,52.40
2017-09-29T12:20:40.063Z,52.70
2017-09-29T12:23:09.862Z,49.60
2017-09-29T12:25:39.226Z,48.90
2017-09-29T12:28:08.580Z,47.90
2017-09-29T12:30:37.664Z,49.10
2017-09-29T12:33:06.766Z,48.20
2017-09-29T12:35:36.268Z,49.60
2017-09-29T12:38:05.266Z,49.40
2017-09-29T12:40:35.167Z,50.30
2017-09-29T12:43:04.058Z,48.90
2017-09-29T12:45:33.417Z,49.50
2017-09-29T12:48:03.531Z,50.20
2017-09-29T12:50:32.273Z,49.60
2017-09-29T12:53:01.569Z,47.80
2017-09-29T12:55:30.986Z,50.00
2017-09-29T12:57:59.759Z,50.70
2017-09-29T13:00:29.576Z,50.20
2017-09-29T13:02:58.827Z,48.70
2017-09-29T13:05:30.012Z,47.40
2017-09-29T13:07:59.120Z,49.80
2017-09-29T13:10:28.262Z,52.20
2017-09-29T13:12:57.324Z,52.50
2017-09-29T13:15:26.228Z,52.20
2017-09-29T13:17:55.703Z,51.50
2017-09-29T13:20:24.800Z,52.20
2017-09-29T13:22:54.328Z,52.30
2017-09-29T13:25:24.831Z,54.00
2017-09-29T13:27:53.608Z,53.90
2017-09-29T13:30:22.635Z,53.30
2017-09-29T13:32:51.670Z,54.50
2017-09-29T13:35:20.837Z,55.40
2017-09-29T13:37:49.801Z,54.10
2017-09-29T13:40:18.693Z,53.50
2017-09-29T13:42:47.669Z,51.70
2017-09-29T13:45:17.918Z,51.50
2017-09-29T13:47:47.965Z,55.20
2017-09-29T13:50:17.617Z,55.10
2017-09-29T13:52:48.191Z,52.50
2017-09-29T13:55:17.163Z,52.10
2017-09-29T13:57:47.578Z,50.20
2017-09-29T14:00:16.982Z,50.70
2017-09-29T14:02:47.453Z,50.70
2017-09-29T14:05:16.600Z,51.00
2017-09-29T14:07:46.423Z,52.80
2017-09-29T14:10:17.000Z,53.80
2017-09-29T14:12:47.967Z,53.90
2017-09-29T14:15:18.801Z,56.20
2017-09-29T14:17:48.189Z,58.20
2017-09-29T14:20:16.866Z,58.10
2017-09-29T14:22:48.168Z,59.40
2017-09-29T14:25:19.345Z,59.40
2017-09-29T14:27:48.378Z,59.40
2017-09-29T14:30:19.136Z,59.50
2017-09-29T14:32:47.981Z,59.60
2017-09-29T14:35:18.923Z,59.60
2017-09-29T14:37:48.220Z,59.10
2017-09-29T14:40:17.574Z,60.30
2017-09-29T14:42:47.920Z,60.80
2017-09-29T14:45:17.407Z,60.80
2017-09-29T14:47:49.812Z,60.50
2017-09-29T14:50:19.072Z,60.50
2017-09-29T14:52:49.370Z,61.10
2017-09-29T14:55:21.270Z,61.10
2017-09-29T14:57:52.046Z,61.40
2017-09-29T15:00:21.814Z,61.50
2017-09-29T15:02:51.058Z,61.00
2017-09-29T15:05:20.547Z,61.20
2017-09-29T15:07:49.305Z,61.40
2017-09-29T15:10:18.611Z,62.40
2017-09-29T15:12:46.713Z,62.40
2017-09-29T15:15:16.799Z,62.20
2017-09-29T15:17:46.038Z,61.70
2017-09-29T15:20:15.091Z,61.70
2017-09-29T15:22:44.704Z,61.80
2017-09-29T15:25:14.283Z,61.10
2017-09-29T15:27:43.297Z,62.40
2017-09-29T15:30:12.245Z,61.90
2017-09-29T15:32:41.283Z,61.00
2017-09-29T15:35:10.294Z,61.50
2017-09-29T15:37:39.514Z,63.30
2017-09-29T15:40:08.775Z,63.40
2017-09-29T15:42:38.227Z,63.20
2017-09-29T15:45:07.594Z,62.50
2017-09-29T15:47:36.851Z,63.10
2017-09-29T15:50:06.954Z,63.10
2017-09-29T15:52:36.102Z,63.00
2017-09-29T15:55:04.894Z,63.50
2017-09-29T15:57:34.471Z,64.30
2017-09-29T16:00:03.801Z,64.40
2017-09-29T16:02:32.849Z,64.50
2017-09-29T16:05:03.379Z,65.30
2017-09-29T16:07:32.529Z,65.30
2017-09-29T16:10:01.360Z,65.10
2017-09-29T16:12:31.436Z,66.10
2017-09-29T16:15:00.250Z,66.10
2017-09-29T16:17:30.214Z,66.60
2017-09-29T16:19:59.618Z,67.00
2017-09-29T16:22:28.303Z,67.00
2017-09-29T16:24:57.016Z,67.50
2017-09-29T16:27:26.054Z,67.50
2017-09-29T16:29:55.433Z,66.90
2017-09-29T16:32:24.833Z,66.70
2017-09-29T16:34:53.746Z,67.00
2017-09-29T16:37:23.420Z,67.90
2017-09-29T16:39:53.674Z,67.90
2017-09-29T16:42:23.441Z,67.60
2017-09-29T16:44:52.670Z,67.70
2017-09-29T16:47:21.827Z,67.20
2017-09-29T16:49:50.944Z,68.10
2017-09-29T16:52:19.981Z,67.50
2017-09-29T16:54:51.073Z,68.00
2017-09-29T16:57:20.181Z,68.00
2017-09-29T16:59:50.403Z,68.80
2017-09-29T17:02:19.997Z,68.80
2017-09-29T17:04:49.305Z,69.30
2017-09-29T17:07:18.348Z,69.10
2017-09-29T17:09:48.513Z,69.00
2017-09-29T17:12:19.244Z,68.90
2017-09-29T17:14:49.355Z,68.70
2017-09-29T17:17:21.465Z,68.80
2017-09-29T17:19:50.670Z,69.00
2017-09-29T17:22:20.234Z,68.80
2017-09-29T17:24:49.234Z,68.70
2017-09-29T17:27:18.128Z,69.00
2017-09-29T17:29:47.996Z,69.20
2017-09-29T17:32:17.239Z,69.30
2017-09-29T17:34:46.339Z,69.30
2017-09-29T17:37:15.410Z,69.70
2017-09-29T17:39:44.427Z,69.60
2017-09-29T17:42:13.215Z,69.50
2017-09-29T17:44:42.153Z,69.60
2017-09-29T17:47:11.323Z,70.10
2017-09-29T17:49:40.299Z,70.50
2017-09-29T17:52:09.804Z,70.60
2017-09-29T17:54:38.898Z,71.00
2017-09-29T17:57:09.221Z,71.40
2017-09-29T17:59:38.111Z,71.90
2017-09-29T18:02:08.087Z,72.10
2017-09-29T18:04:37.244Z,72.50
2017-09-29T18:07:06.611Z,72.80
2017-09-29T18:09:36.501Z,72.90
2017-09-29T18:12:05.839Z,72.90
2017-09-29T18:14:35.246Z,73.20
2017-09-29T18:17:04.782Z,73.70
2017-09-29T18:19:34.218Z,73.50
2017-09-29T18:22:03.715Z,73.80
2017-09-29T18:24:32.936Z,73.70
2017-09-29T18:27:02.296Z,73.70
2017-09-29T18:29:32.357Z,74.00
2017-09-29T18:32:01.408Z,73.70
2017-09-29T18:34:31.324Z,73.70
2017-09-29T18:37:01.270Z,73.60
2017-09-29T18:39:31.156Z,73.40
2017-09-29T18:42:00.835Z,73.40
2017-09-29T18:44:31.668Z,73.50
2017-09-29T18:47:04.458Z,73.50
2017-09-29T18:49:33.349Z,73.70
2017-09-29T18:52:02.154Z,73.60
2017-09-29T18:54:31.265Z,73.30
2017-09-29T18:57:01.195Z,73.50
2017-09-29T18:59:30.300Z,73.50
2017-09-29T19:01:59.659Z,73.90
2017-09-29T19:04:28.531Z,74.00
2017-09-29T19:06:57.794Z,74.00
2017-09-29T19:09:27.638Z,74.00
2017-09-29T19:11:56.955Z,74.20
2017-09-29T19:14:26.150Z,74.00
2017-09-29T19:16:56.090Z,73.80
2017-09-29T19:19:25.767Z,73.60
2017-09-29T19:21:54.658Z,73.60
2017-09-29T19:24:24.157Z,74.00
2017-09-29T19:26:53.159Z,74.00
2017-09-29T19:29:23.276Z,73.50
2017-09-29T19:31:52.404Z,73.80
2017-09-29T19:34:21.448Z,73.60
2017-09-29T19:36:50.115Z,74.00
2017-09-29T19:39:20.302Z,74.00
2017-09-29T19:41:50.461Z,74.20
2017-09-29T19:44:19.783Z,74.00
2017-09-29T19:46:50.134Z,74.20
2017-09-29T19:49:20.269Z,74.10
2017-09-29T19:51:50.167Z,74.10
2017-09-29T19:54:19.264Z,74.20
2017-09-29T19:56:49.082Z,74.10
2017-09-29T19:59:18.323Z,74.10
2017-09-29T20:01:48.089Z,74.20
2017-09-29T20:04:17.652Z,74.40
2017-09-29T20:06:47.646Z,75.00
2017-09-29T20:09:16.806Z,74.20
2017-09-29T20:11:46.871Z,74.60
2017-09-29T20:14:16.852Z,74.50
2017-09-29T20:16:46.351Z,74.50
2017-09-29T20:19:15.177Z,74.50
2017-09-29T20:21:44.097Z,74.70
2017-09-29T20:24:13.032Z,74.50
2017-09-29T20:26:43.131Z,74.40
2017-09-29T20:29:12.535Z,74.40
2017-09-29T20:31:41.833Z,74.40
2017-09-29T20:34:11.979Z,74.40
2017-09-29T20:36:41.294Z,74.40
2017-09-29T20:39:10.453Z,74.70
2017-09-29T20:41:39.663Z,74.60
2017-09-29T20:44:09.041Z,74.50
2017-09-29T20:46:38.994Z,74.50
2017-09-29T20:49:08.270Z,74.30
2017-09-29T20:51:37.173Z,74.00
2017-09-29T20:54:05.874Z,74.20
2017-09-29T20:56:35.148Z,74.20
2017-09-29T20:59:04.418Z,74.30
2017-09-29T21:01:33.428Z,74.90
2017-09-29T21:04:02.609Z,74.40
2017-09-29T21:06:31.737Z,74.30
2017-09-29T21:09:03.498Z,74.20
2017-09-29T21:11:33.352Z,74.40
2017-09-29T21:14:02.260Z,74.20
2017-09-29T21:16:31.207Z,74.10
2017-09-29T21:19:00.287Z,74.10
2017-09-29T21:21:29.247Z,74.10
2017-09-29T21:23:58.960Z,74.10
2017-09-29T21:26:33.051Z,74.00
2017-09-29T21:29:10.898Z,73.90
2017-09-29T21:31:40.680Z,73.90
2017-09-29T21:34:10.169Z,73.90
2017-09-29T21:36:38.913Z,73.90
2017-09-29T21:39:08.011Z,73.90
2017-09-29T21:41:37.105Z,74.00
2017-09-29T21:44:06.815Z,73.90
2017-09-29T21:46:36.076Z,74.00
2017-09-29T21:49:05.424Z,73.80
2017-09-29T21:51:35.546Z,73.90
2017-09-29T21:54:04.260Z,73.90
2017-09-29T21:56:34.449Z,73.80
2017-09-29T21:59:03.653Z,73.80
2017-09-29T22:01:32.550Z,74.00
2017-09-29T22:04:01.400Z,73.90
2017-09-29T22:06:30.312Z,74.00
2017-09-29T22:08:59.207Z,74.10
2017-09-29T22:11:28.306Z,74.20
2017-09-29T22:13:57.399Z,74.40
2017-09-29T22:16:26.474Z,74.00
2017-09-29T22:18:55.914Z,74.00
2017-09-29T22:21:25.713Z,73.90
2017-09-29T22:23:55.206Z,73.90
2017-09-29T22:26:24.041Z,73.90
2017-09-29T22:28:53.204Z,74.00
2017-09-29T22:31:22.484Z,74.00
2017-09-29T22:33:52.424Z,73.90
2017-09-29T22:36:21.308Z,73.80
2017-09-29T22:38:51.038Z,74.00
2017-09-29T22:41:20.115Z,74.00
2017-09-29T22:43:49.192Z,74.00
2017-09-29T22:46:17.897Z,73.80
2017-09-29T22:48:46.789Z,73.80
2017-09-29T22:51:15.632Z,73.90
2017-09-29T22:53:44.365Z,73.70
2017-09-29T22:56:13.459Z,73.70
2017-09-29T22:58:42.354Z,74.00
2017-09-29T23:01:11.036Z,73.70
2017-09-29T23:03:39.928Z,73.70
2017-09-29T23:06:09.025Z,73.80
2017-09-29T23:08:37.919Z,73.70
2017-09-29T23:11:07.033Z,73.80
2017-09-29T23:13:35.955Z,73.90
2017-09-29T23:16:04.945Z,74.00
2017-09-29T23:18:34.505Z,74.00
2017-09-29T23:21:03.883Z,74.00
2017-09-29T23:23:32.901Z,73.90
2017-09-29T23:26:01.995Z,73.80
2017-09-29T23:28:31.506Z,73.70
2017-09-29T23:31:00.630Z,73.90
2017-09-29T23:33:30.448Z,74.00
2017-09-29T23:35:59.610Z,74.10
2017-09-29T23:38:28.296Z,74.10
2017-09-29T23:40:57.404Z,74.20
2017-09-29T23:43:26.504Z,74.30
2017-09-29T23:45:55.354Z,74.40
2017-09-29T23:48:24.470Z,74.40
2017-09-29T23:50:53.205Z,74.30
2017-09-29T23:53:22.167Z,74.50
2017-09-29T23:55:51.037Z,74.40
2017-09-29T23:58:21.180Z,74.30
